createdAt,value
2022-12-24T00:01:20.411Z,42.54
2022-12-24T00:04:02.101Z,42.38
2022-12-24T00:06:34.401Z,42.60
2022-12-24T00:12:10.532Z,42.39
2022-12-24T00:14:59.045Z,41.87
2022-12-24T00:17:33.312Z,42.61
2022-12-24T00:20:10.180Z,42.32
2022-12-24T00:22:42.229Z,42.14
2022-12-24T00:25:15.644Z,42.49
2022-12-24T00:27:57.319Z,42.66
2022-12-24T00:30:31.137Z,42.13
2022-12-24T00:33:00.186Z,41.75
2022-12-24T00:35:30.200Z,42.18
2022-12-24T00:38:05.096Z,41.95
2022-12-24T00:40:38.265Z,41.98
2022-12-24T00:43:17.996Z,41.91
2022-12-24T00:45:58.034Z,41.89
2022-12-24T00:48:36.474Z,42.32
2022-12-24T00:51:07.904Z,42.38
2022-12-24T00:53:45.600Z,41.74
2022-12-24T00:56:14.018Z,42.34
2022-12-24T00:58:47.283Z,43.30
2022-12-24T01:01:15.852Z,42.74
2022-12-24T01:03:46.800Z,42.76
2022-12-24T01:06:15.324Z,42.68
2022-12-24T01:08:47.991Z,43.20
2022-12-24T01:11:15.145Z,42.84
2022-12-24T01:13:42.609Z,42.90
2022-12-24T01:16:21.046Z,42.99
2022-12-24T01:18:49.906Z,43.13
2022-12-24T01:21:26.878Z,42.69
2022-12-24T01:23:59.154Z,43.43
2022-12-24T01:26:26.524Z,43.13
2022-12-24T01:28:58.772Z,43.09
2022-12-24T01:31:30.928Z,42.68
2022-12-24T01:34:03.614Z,43.22
2022-12-24T01:36:32.481Z,42.95
2022-12-24T01:39:00.495Z,42.58
2022-12-24T01:41:46.061Z,42.62
2022-12-24T01:44:33.428Z,42.68
2022-12-24T01:47:21.446Z,42.67
2022-12-24T01:49:53.284Z,42.80
2022-12-24T01:52:22.994Z,42.92
2022-12-24T01:54:51.593Z,43.09
2022-12-24T01:57:33.948Z,43.16
2022-12-24T02:00:06.306Z,42.93
2022-12-24T02:02:36.228Z,43.03
2022-12-24T02:05:24.435Z,43.14
2022-12-24T02:07:54.147Z,43.04
2022-12-24T02:10:22.751Z,43.03
2022-12-24T02:12:50.893Z,42.91
2022-12-24T02:15:19.851Z,43.30
2022-12-24T02:18:08.951Z,43.42
2022-12-24T02:20:50.639Z,43.34
2022-12-24T02:23:17.886Z,43.27
2022-12-24T02:25:52.295Z,43.18
2022-12-24T02:28:21.500Z,43.13
2022-12-24T02:30:56.342Z,43.22
2022-12-24T02:33:41.991Z,43.17
2022-12-24T02:36:18.970Z,43.15
2022-12-24T02:38:53.869Z,43.33
2022-12-24T02:42:06.944Z,43.42
2022-12-24T02:44:46.479Z,43.71
2022-12-24T02:47:18.021Z,43.38
2022-12-24T02:49:46.454Z,43.21
2022-12-24T02:52:32.714Z,43.48
2022-12-24T02:55:08.466Z,43.25
2022-12-24T02:57:49.442Z,43.33
2022-12-24T03:00:21.008Z,43.04
2022-12-24T03:03:12.913Z,42.95
2022-12-24T03:05:50.366Z,42.68
2022-12-24T03:08:25.542Z,42.90
2022-12-24T03:11:01.538Z,43.14
2022-12-24T03:13:56.536Z,42.65
2022-12-24T03:16:30.088Z,42.29
2022-12-24T03:19:03.322Z,42.38
2022-12-24T03:21:43.608Z,42.90
2022-12-24T03:24:14.208Z,43.15
2022-12-24T03:26:45.148Z,43.06
2022-12-24T03:29:14.734Z,42.97
2022-12-24T03:31:46.424Z,42.81
2022-12-24T03:34:20.081Z,43.82
2022-12-24T03:36:49.385Z,43.78
2022-12-24T03:39:20.390Z,43.60
2022-12-24T03:41:47.828Z,43.82
2022-12-24T03:44:15.001Z,43.83
2022-12-24T03:46:42.405Z,43.95
2022-12-24T03:49:10.783Z,43.71
2022-12-24T03:51:37.911Z,43.50
2022-12-24T03:54:04.985Z,43.90
2022-12-24T03:56:32.058Z,43.71
2022-12-24T03:59:02.854Z,43.85
2022-12-24T04:01:32.025Z,44.07
2022-12-24T04:03:59.332Z,44.08
2022-12-24T04:06:26.735Z,44.18
2022-12-24T04:08:56.763Z,44.38
2022-12-24T04:11:23.839Z,44.32
2022-12-24T04:13:50.924Z,44.11
2022-12-24T04:16:21.083Z,44.51
2022-12-24T04:18:50.021Z,44.63
2022-12-24T04:21:25.812Z,44.33
2022-12-24T04:23:55.291Z,44.66
2022-12-24T04:26:22.612Z,44.34
2022-12-24T04:29:00.786Z,44.71
2022-12-24T04:31:29.403Z,44.85
2022-12-24T04:33:58.799Z,44.34
2022-12-24T04:36:25.789Z,44.42
2022-12-24T04:38:56.403Z,44.82
2022-12-24T04:41:27.487Z,44.91
2022-12-24T04:43:57.789Z,44.18
2022-12-24T04:46:34.882Z,44.73
2022-12-24T04:49:12.948Z,44.88
2022-12-24T04:52:10.439Z,44.80
2022-12-24T04:54:47.023Z,44.80
2022-12-24T04:57:19.602Z,44.45
2022-12-24T05:00:03.467Z,44.21
2022-12-24T05:02:35.148Z,44.64
2022-12-24T05:05:06.173Z,44.46
2022-12-24T05:07:35.577Z,44.72
2022-12-24T05:10:05.692Z,45.24
2022-12-24T05:12:33.946Z,45.35
2022-12-24T05:15:06.349Z,45.84
2022-12-24T05:17:35.728Z,45.88
2022-12-24T05:20:04.277Z,45.83
2022-12-24T05:22:49.816Z,45.81
2022-12-24T05:25:37.036Z,45.82
2022-12-24T05:28:04.102Z,46.20
2022-12-24T05:30:34.991Z,46.25
2022-12-24T05:33:07.280Z,46.44
2022-12-24T05:35:39.636Z,46.70
2022-12-24T05:38:11.224Z,46.82
2022-12-24T05:40:39.041Z,47.07
2022-12-24T05:43:06.179Z,47.43
2022-12-24T05:45:38.065Z,47.42
2022-12-24T05:48:09.161Z,47.42
2022-12-24T05:50:45.394Z,47.67
2022-12-24T05:53:29.880Z,47.23
2022-12-24T05:56:10.419Z,47.26
2022-12-24T05:58:43.849Z,47.49
2022-12-24T06:01:13.247Z,47.16
2022-12-24T06:03:44.699Z,47.25
2022-12-24T06:06:28.608Z,47.42
2022-12-24T06:09:06.541Z,47.29
2022-12-24T06:11:33.876Z,46.97
2022-12-24T06:14:09.381Z,47.39
2022-12-24T06:16:36.592Z,47.59
2022-12-24T06:19:03.986Z,47.58
2022-12-24T06:21:34.418Z,47.43
2022-12-24T06:24:04.283Z,47.52
2022-12-24T06:26:37.430Z,47.87
2022-12-24T06:29:13.830Z,47.63
2022-12-24T06:31:47.075Z,47.94
2022-12-24T06:34:16.059Z,47.74
2022-12-24T06:36:52.982Z,47.87
2022-12-24T06:39:30.611Z,48.09
2022-12-24T06:42:28.827Z,48.35
2022-12-24T06:45:07.802Z,47.89
2022-12-24T06:47:52.600Z,47.88
2022-12-24T06:50:20.290Z,47.70
2022-12-24T06:52:47.750Z,47.53
2022-12-24T06:55:24.644Z,47.92
2022-12-24T06:57:59.943Z,48.34
2022-12-24T07:00:30.918Z,48.20
2022-12-24T07:03:12.059Z,48.48
2022-12-24T07:06:06.212Z,48.54
2022-12-24T07:11:22.297Z,48.70
2022-12-24T07:13:58.645Z,49.15
2022-12-24T07:17:18.953Z,48.90
2022-12-24T07:19:46.222Z,48.43
2022-12-24T07:22:15.720Z,48.60
2022-12-24T07:24:43.475Z,48.26
2022-12-24T07:27:12.786Z,48.13
2022-12-24T07:29:42.208Z,48.44
2022-12-24T07:32:09.495Z,48.43
2022-12-24T07:34:39.050Z,48.17
2022-12-24T07:37:09.944Z,48.35
2022-12-24T07:39:37.014Z,48.18
2022-12-24T07:42:05.815Z,48.02
2022-12-24T07:44:32.835Z,48.22
2022-12-24T07:47:02.568Z,48.19
2022-12-24T07:49:31.673Z,48.06
2022-12-24T07:51:58.839Z,47.93
2022-12-24T07:54:25.952Z,47.96
2022-12-24T07:56:52.901Z,47.80
2022-12-24T07:59:19.935Z,47.16
2022-12-24T08:01:47.445Z,46.86
2022-12-24T08:04:17.671Z,47.06
2022-12-24T08:06:44.647Z,46.85
2022-12-24T08:09:15.748Z,47.14
2022-12-24T08:11:49.707Z,47.07
2022-12-24T08:14:18.996Z,46.88
2022-12-24T08:16:48.471Z,46.83
2022-12-24T08:19:16.938Z,47.60
2022-12-24T08:21:46.647Z,46.96
2022-12-24T08:24:13.873Z,46.82
2022-12-24T08:26:43.379Z,46.68
2022-12-24T08:29:10.407Z,47.27
2022-12-24T08:31:40.388Z,46.61
2022-12-24T08:34:11.127Z,46.27
2022-12-24T08:36:41.400Z,46.20
2022-12-24T08:39:11.409Z,46.00
2022-12-24T08:41:41.548Z,48.43
2022-12-24T08:44:11.536Z,46.94
2022-12-24T08:49:19.504Z,45.83
2022-12-24T08:51:52.267Z,45.52
2022-12-24T08:54:28.842Z,44.79
2022-12-24T08:56:59.355Z,45.11
2022-12-24T08:59:27.405Z,44.92
2022-12-24T09:01:58.095Z,44.40
2022-12-24T09:04:34.860Z,44.83
2022-12-24T09:07:02.100Z,44.33
2022-12-24T09:09:32.726Z,44.21
2022-12-24T09:12:05.709Z,43.24
2022-12-24T09:14:38.618Z,42.01
2022-12-24T09:17:09.580Z,42.41
2022-12-24T09:19:39.468Z,42.42
2022-12-24T09:22:06.898Z,43.14
2022-12-24T09:24:38.254Z,41.37
2022-12-24T09:27:06.524Z,41.08
2022-12-24T09:29:35.575Z,39.84
2022-12-24T09:32:05.726Z,39.45
2022-12-24T09:34:35.811Z,38.42
2022-12-24T09:37:07.848Z,37.27
2022-12-24T09:39:40.506Z,37.28
2022-12-24T09:42:16.468Z,37.40
2022-12-24T09:45:04.722Z,36.37
2022-12-24T09:47:53.003Z,36.80
2022-12-24T09:50:35.946Z,35.95
2022-12-24T09:53:24.795Z,35.02
2022-12-24T09:56:04.233Z,33.85
2022-12-24T10:05:18.620Z,32.56
2022-12-24T10:07:56.719Z,32.65
2022-12-24T10:10:34.005Z,32.47
2022-12-24T10:13:24.754Z,32.76
2022-12-24T10:16:00.842Z,31.05
2022-12-24T10:18:44.227Z,31.23
2022-12-24T10:21:34.057Z,30.68
2022-12-24T10:24:16.983Z,29.65
2022-12-24T10:26:51.114Z,29.64
2022-12-24T10:29:21.437Z,29.04
2022-12-24T10:32:11.723Z,28.50
2022-12-24T10:34:52.498Z,27.78
2022-12-24T10:37:25.880Z,27.52
2022-12-24T10:40:00.938Z,27.45
2022-12-24T10:42:46.299Z,26.52
2022-12-24T10:45:23.468Z,26.72
2022-12-24T10:47:55.163Z,26.05
2022-12-24T10:50:47.235Z,25.79
2022-12-24T10:53:40.949Z,24.45
2022-12-24T10:56:13.873Z,24.33
2022-12-24T10:58:51.552Z,24.16
2022-12-24T11:01:19.054Z,25.58
2022-12-24T11:03:46.455Z,24.58
2022-12-24T11:06:21.465Z,23.94
2022-12-24T11:08:51.530Z,23.05
2022-12-24T11:11:21.269Z,22.59
2022-12-24T11:13:53.296Z,21.78
2022-12-24T11:16:46.287Z,22.36
2022-12-24T11:19:28.361Z,22.38
2022-12-24T11:22:06.410Z,22.40
2022-12-24T11:24:50.246Z,20.99
2022-12-24T11:27:26.111Z,21.18
2022-12-24T11:29:54.486Z,20.25
2022-12-24T11:32:26.982Z,19.17
2022-12-24T11:34:54.914Z,19.44
2022-12-24T11:37:28.452Z,19.44
2022-12-24T11:40:02.774Z,18.49
2022-12-24T11:42:38.749Z,20.47
2022-12-24T11:45:22.777Z,18.81
2022-12-24T11:47:50.113Z,18.60
2022-12-24T11:50:35.952Z,18.46
2022-12-24T11:53:03.116Z,18.04
2022-12-24T11:56:03.778Z,17.79
2022-12-24T11:58:46.109Z,17.51
2022-12-24T12:01:27.940Z,17.44
2022-12-24T12:04:17.761Z,17.09
2022-12-24T12:07:24.194Z,16.40
2022-12-24T12:13:41.037Z,16.98
2022-12-24T12:17:10.654Z,16.16
2022-12-24T12:22:46.554Z,18.59
2022-12-24T12:25:25.840Z,19.95
2022-12-24T12:27:55.234Z,20.28
2022-12-24T12:30:29.057Z,19.73
2022-12-24T12:33:26.098Z,20.09
2022-12-24T12:35:58.970Z,21.81
2022-12-24T12:38:54.106Z,20.32
2022-12-24T12:41:26.784Z,21.45
2022-12-24T12:44:12.564Z,21.94
2022-12-24T12:47:01.578Z,21.63
2022-12-24T12:50:06.502Z,22.63
2022-12-24T12:53:07.434Z,23.53
2022-12-24T12:55:43.080Z,25.25
2022-12-24T12:58:25.626Z,25.84
2022-12-24T13:01:09.880Z,26.35
2022-12-24T13:04:03.999Z,25.75
2022-12-24T13:06:54.533Z,27.10
2022-12-24T13:09:37.482Z,28.68
2022-12-24T13:12:20.112Z,26.26
2022-12-24T13:15:08.827Z,26.38
2022-12-24T13:17:35.912Z,26.32
2022-12-24T13:20:18.479Z,27.21
2022-12-24T13:23:19.130Z,27.06
2022-12-24T13:25:51.307Z,27.26
2022-12-24T13:31:28.413Z,29.18
2022-12-24T13:34:07.598Z,28.81
2022-12-24T13:36:58.096Z,30.11
2022-12-24T13:39:53.858Z,29.67
2022-12-24T13:42:42.206Z,30.31
2022-12-24T13:45:30.960Z,29.92
2022-12-24T13:48:13.473Z,28.87
2022-12-24T13:50:43.800Z,28.02
2022-12-24T13:53:36.383Z,29.31
2022-12-24T13:56:13.403Z,30.58
2022-12-24T13:58:47.350Z,29.21
2022-12-24T14:01:18.093Z,29.84
2022-12-24T14:06:53.323Z,30.32
2022-12-24T14:09:27.707Z,28.46
2022-12-24T14:11:58.163Z,28.33
2022-12-24T14:14:35.848Z,30.54
2022-12-24T14:17:09.545Z,30.00
2022-12-24T14:19:52.606Z,31.66
2022-12-24T14:22:29.618Z,29.89
2022-12-24T14:25:05.884Z,30.45
2022-12-24T14:27:49.742Z,31.42
2022-12-24T14:30:30.657Z,30.82
2022-12-24T14:33:07.467Z,31.24
2022-12-24T14:35:38.987Z,31.41
2022-12-24T14:38:19.298Z,31.84
2022-12-24T14:40:56.563Z,31.09
2022-12-24T14:43:56.061Z,31.93
2022-12-24T14:46:30.388Z,31.62
2022-12-24T14:49:22.837Z,32.62
2022-12-24T14:52:18.409Z,32.03
2022-12-24T14:54:56.091Z,31.33
2022-12-24T14:57:36.376Z,32.67
2022-12-24T15:00:20.565Z,32.64
2022-12-24T15:02:52.334Z,32.83
2022-12-24T15:05:28.907Z,32.74
2022-12-24T15:07:59.436Z,31.74
2022-12-24T15:10:32.504Z,31.77
2022-12-24T15:13:15.870Z,31.97
2022-12-24T15:15:52.037Z,33.10
2022-12-24T15:18:22.949Z,33.87
2022-12-24T15:21:01.985Z,35.15
2022-12-24T15:23:35.969Z,36.40
2022-12-24T15:26:27.817Z,36.20
2022-12-24T15:29:03.396Z,36.15
2022-12-24T15:31:45.889Z,37.18
2022-12-24T15:34:34.026Z,36.33
2022-12-24T15:37:17.035Z,37.44
2022-12-24T15:43:03.516Z,38.53
2022-12-24T15:45:56.561Z,37.41
2022-12-24T15:48:33.278Z,37.57
2022-12-24T15:51:21.219Z,36.78
2022-12-24T15:53:51.009Z,37.73
2022-12-24T15:56:30.395Z,37.30
2022-12-24T15:59:25.810Z,39.13
2022-12-24T16:02:02.348Z,39.72
2022-12-24T16:04:31.870Z,39.84
2022-12-24T16:07:08.230Z,39.36
2022-12-24T16:12:34.160Z,39.23
2022-12-24T16:15:14.956Z,39.40
2022-12-24T16:17:49.575Z,39.66
2022-12-24T16:20:19.083Z,39.82
2022-12-24T16:22:54.223Z,41.15
2022-12-24T16:26:09.168Z,40.01
2022-12-24T16:28:44.713Z,40.02
2022-12-24T16:31:21.118Z,40.25
2022-12-24T16:33:50.790Z,41.34
2022-12-24T16:36:20.233Z,41.24
2022-12-24T16:39:09.062Z,40.91
2022-12-24T16:42:02.797Z,41.77
2022-12-24T16:44:35.035Z,41.12
2022-12-24T16:47:04.822Z,41.42
2022-12-24T16:49:33.618Z,41.21
2022-12-24T16:52:14.497Z,40.68
2022-12-24T16:54:47.467Z,40.63
2022-12-24T16:57:21.785Z,40.70
2022-12-24T17:00:04.278Z,40.63
2022-12-24T17:02:37.680Z,42.14
2022-12-24T17:05:10.340Z,42.00
2022-12-24T17:07:43.720Z,41.20
2022-12-24T17:10:22.366Z,42.25
2022-12-24T17:13:00.392Z,41.96
2022-12-24T17:15:34.213Z,42.58
2022-12-24T17:18:17.736Z,42.14
2022-12-24T17:20:47.905Z,42.24
2022-12-24T17:23:16.542Z,42.97
2022-12-24T17:26:00.459Z,42.99
2022-12-24T17:28:30.987Z,43.19
2022-12-24T17:31:01.365Z,42.89
2022-12-24T17:33:36.169Z,43.08
2022-12-24T17:36:03.924Z,43.54
2022-12-24T17:38:31.187Z,43.26
2022-12-24T17:41:09.466Z,42.95
2022-12-24T17:43:41.203Z,43.17
2022-12-24T17:46:13.750Z,43.48
2022-12-24T17:48:45.858Z,43.36
2022-12-24T17:51:23.551Z,44.04
2022-12-24T17:54:13.409Z,43.78
2022-12-24T17:56:46.012Z,44.72
2022-12-24T17:59:18.049Z,44.54
2022-12-24T18:01:48.456Z,43.88
2022-12-24T18:04:28.553Z,43.94
2022-12-24T18:07:04.658Z,43.66
2022-12-24T18:09:58.176Z,43.58
2022-12-24T18:12:41.192Z,43.71
2022-12-24T18:18:12.973Z,43.51
2022-12-24T18:20:54.602Z,43.33
2022-12-24T18:23:33.716Z,43.14
2022-12-24T18:26:14.030Z,43.44
2022-12-24T18:28:49.417Z,43.43
2022-12-24T18:31:19.472Z,43.30
2022-12-24T18:33:55.173Z,43.63
2022-12-24T18:36:24.096Z,43.66
2022-12-24T18:38:53.903Z,43.87
2022-12-24T18:41:25.981Z,43.75
2022-12-24T18:44:02.748Z,43.52
2022-12-24T18:46:33.974Z,43.62
2022-12-24T18:49:05.100Z,43.62
2022-12-24T18:51:40.178Z,43.67
2022-12-24T18:54:14.170Z,43.71
2022-12-24T18:57:09.917Z,43.61
2022-12-24T18:59:40.961Z,43.97
2022-12-24T19:05:07.978Z,43.37
2022-12-24T19:07:40.710Z,43.78
2022-12-24T19:10:12.535Z,43.91
2022-12-24T19:12:51.312Z,44.16
2022-12-24T19:15:36.132Z,43.95
2022-12-24T19:18:08.527Z,44.16
2022-12-24T19:20:52.144Z,44.51
2022-12-24T19:23:31.676Z,44.22
2022-12-24T19:26:08.617Z,44.77
2022-12-24T19:28:49.756Z,44.86
2022-12-24T19:31:27.572Z,44.80
2022-12-24T19:34:02.923Z,44.64
2022-12-24T19:36:45.097Z,44.37
2022-12-24T19:39:19.922Z,44.74
2022-12-24T19:41:53.754Z,44.66
2022-12-24T19:44:25.480Z,44.63
2022-12-24T19:47:01.684Z,44.63
2022-12-24T19:49:30.868Z,44.66
2022-12-24T19:52:03.140Z,44.09
2022-12-24T19:54:30.677Z,44.30
2022-12-24T19:57:02.427Z,44.50
2022-12-24T19:59:32.500Z,44.20
2022-12-24T20:02:00.344Z,43.98
2022-12-24T20:04:27.557Z,43.60
2022-12-24T20:07:01.077Z,43.97
2022-12-24T20:09:29.042Z,43.36
2022-12-24T20:12:10.784Z,43.01
2022-12-24T20:17:34.251Z,42.90
2022-12-24T20:20:14.289Z,41.98
2022-12-24T20:22:46.489Z,41.65
2022-12-24T20:25:17.397Z,41.48
2022-12-24T20:27:52.414Z,41.22
2022-12-24T20:30:27.193Z,41.53
2022-12-24T20:32:57.655Z,41.48
2022-12-24T20:35:28.968Z,41.97
2022-12-24T20:37:58.410Z,42.11
2022-12-24T20:40:28.861Z,42.15
2022-12-24T20:42:58.561Z,41.44
2022-12-24T20:45:28.209Z,42.11
2022-12-24T20:48:04.380Z,42.62
2022-12-24T20:50:34.452Z,41.69
2022-12-24T20:53:07.636Z,42.55
2022-12-24T20:55:38.762Z,41.81
2022-12-24T20:58:31.042Z,41.78
2022-12-24T21:01:07.705Z,42.31
2022-12-24T21:03:54.455Z,42.05
2022-12-24T21:06:28.102Z,41.39
2022-12-24T21:08:57.724Z,41.99
2022-12-24T21:11:45.485Z,41.50
2022-12-24T21:14:15.095Z,41.38
2022-12-24T21:16:45.271Z,41.36
2022-12-24T21:19:16.336Z,41.28
2022-12-24T21:21:48.394Z,41.58
2022-12-24T21:24:20.146Z,41.12
2022-12-24T21:26:50.441Z,41.18
2022-12-24T21:29:17.673Z,40.59
2022-12-24T21:31:46.717Z,40.72
2022-12-24T21:34:16.137Z,41.60
2022-12-24T21:36:54.228Z,41.52
2022-12-24T21:39:24.027Z,41.17
2022-12-24T21:41:58.265Z,41.73
2022-12-24T21:44:25.328Z,41.62
2022-12-24T21:46:55.414Z,41.68
2022-12-24T21:49:54.078Z,42.25
2022-12-24T21:52:26.601Z,42.20
2022-12-24T21:54:58.151Z,42.10
2022-12-24T21:57:53.462Z,41.97
2022-12-24T22:00:24.704Z,41.48
2022-12-24T22:02:58.123Z,42.40
2022-12-24T22:05:29.921Z,42.23
2022-12-24T22:08:16.680Z,42.44
2022-12-24T22:11:07.103Z,42.29
2022-12-24T22:13:35.844Z,42.48
2022-12-24T22:16:04.865Z,42.15
2022-12-24T22:18:31.987Z,42.44
2022-12-24T22:21:02.422Z,42.80
2022-12-24T22:23:41.927Z,42.93
2022-12-24T22:26:14.329Z,43.04
2022-12-24T22:28:41.809Z,42.92
2022-12-24T22:31:20.096Z,43.05
2022-12-24T22:34:04.158Z,43.43
2022-12-24T22:36:47.594Z,43.51
2022-12-24T22:39:33.377Z,43.60
2022-12-24T22:42:02.578Z,43.55
2022-12-24T22:44:32.268Z,43.62
2022-12-24T22:47:01.280Z,44.00
2022-12-24T22:49:31.984Z,43.91
2022-12-24T22:52:06.018Z,43.80
2022-12-24T22:54:35.626Z,44.08
2022-12-24T22:57:14.203Z,44.12
2022-12-24T23:02:37.875Z,44.56
2022-12-24T23:05:26.438Z,44.03
2022-12-24T23:08:03.088Z,44.22
2022-12-24T23:10:35.004Z,44.35
2022-12-24T23:13:20.977Z,44.58
2022-12-24T23:15:50.330Z,44.97
2022-12-24T23:18:22.949Z,44.53
2022-12-24T23:20:52.133Z,44.30
2022-12-24T23:23:36.453Z,44.83
2022-12-24T23:26:10.463Z,45.07
2022-12-24T23:28:38.470Z,44.79
2022-12-24T23:31:08.124Z,45.33
2022-12-24T23:33:40.586Z,44.81
2022-12-24T23:36:09.518Z,44.73
2022-12-24T23:38:37.490Z,44.96
2022-12-24T23:41:08.294Z,45.28
2022-12-24T23:43:35.609Z,45.45
2022-12-24T23:46:08.252Z,45.23
2022-12-24T23:48:37.821Z,45.38
2022-12-24T23:51:06.911Z,45.73
2022-12-24T23:53:38.729Z,45.47
2022-12-24T23:56:07.405Z,45.53
2022-12-24T23:58:39.977Z,45.42
